Time;durP1;ratioP1;P1;durP2;ratioP2;P2;SDS_P1;SDS_P2;PMS_P1;PMS_P2;Temp;Humidity;BMP_temperature;BMP_pressure;BME280_temperature;BME280_humidity;BME280_pressure;Samples;Min_cycle;Max_cycle;Signal;HPM_P1;HPM_P2
2022/01/21 00:00:33;;;;;;;28.38;17.02;;;;;;;;;;4806748;29;20493;-79
2022/01/21 00:03:18;;;;;;;26.95;16.15;;;;;;;;;;4806434;29;20413;-79
2022/01/21 00:06:07;;;;;;;143.85;56.97;;;;;;;;;;4806421;29;20043;-79
2022/01/21 00:08:53;;;;;;;209.05;86.22;;;;;;;;;;4805683;29;20502;-79
2022/01/21 00:11:40;;;;;;;137.82;52.83;;;;;;;;;;4806829;29;20051;-79
2022/01/21 00:14:26;;;;;;;66.57;31.02;;;;;;;;;;4805627;29;20501;-79
2022/01/21 00:17:15;;;;;;;54.17;29.05;;;;;;;;;;4803854;29;20062;-79
2022/01/21 00:32:19;;;;;;;48.08;24.88;;;;;;;;;;4798861;29;20047;-79
2022/01/21 00:35:06;;;;;;;46.80;24.10;;;;;;;;;;4806582;29;20055;-79
2022/01/21 00:37:52;;;;;;;43.55;22.48;;;;;;;;;;4798343;29;20047;-80
2022/01/21 00:40:41;;;;;;;46.42;22.15;;;;;;;;;;4807802;29;20498;-80
2022/01/21 00:43:31;;;;;;;43.70;23.45;;;;;;;;;;4807801;29;20043;-81
2022/01/21 00:46:19;;;;;;;44.58;24.33;;;;;;;;;;4808062;29;20054;-80
2022/01/21 00:49:05;;;;;;;52.13;24.88;;;;;;;;;;4813969;29;20043;-79
2022/01/21 00:51:51;;;;;;;51.63;25.63;;;;;;;;;;4807390;29;20413;-80
2022/01/21 00:54:37;;;;;;;42.75;23.15;;;;;;;;;;4808411;29;20054;-80
2022/01/21 00:57:22;;;;;;;49.30;27.55;;;;;;;;;;4794189;29;20047;-79
2022/01/21 01:00:11;;;;;;;52.05;27.90;;;;;;;;;;4807698;29;20047;-80
2022/01/21 01:02:57;;;;;;;63.90;29.77;;;;;;;;;;4806293;29;20497;-79
2022/01/21 01:05:42;;;;;;;55.85;29.25;;;;;;;;;;4798032;29;20043;-80
2022/01/21 01:08:27;;;;;;;53.70;28.85;;;;;;;;;;4795356;29;20494;-80
2022/01/21 01:11:21;;;;;;;50.28;26.38;;;;;;;;;;4806121;29;20051;-80
2022/01/21 01:20:16;;;;;;;44.00;22.25;;;;;;;;;;4805641;29;20047;-80
2022/01/21 01:23:21;;;;;;;37.17;21.10;;;;;;;;;;4806400;29;20402;-80
2022/01/21 01:29:14;;;;;;;30.33;17.42;;;;;;;;;;4798857;29;20051;-80
2022/01/21 01:32:08;;;;;;;28.02;14.63;;;;;;;;;;4802511;29;20051;-80
2022/01/21 01:34:54;;;;;;;23.00;13.55;;;;;;;;;;4808434;29;20047;-80
2022/01/21 01:40:50;;;;;;;20.75;12.68;;;;;;;;;;4808785;29;20043;-80
2022/01/21 01:49:42;;;;;;;25.17;13.73;;;;;;;;;;4808454;29;20409;-80
2022/01/21 01:52:28;;;;;;;19.80;13.30;;;;;;;;;;4808796;29;20058;-79
2022/01/21 01:55:13;;;;;;;14.60;9.38;;;;;;;;;;4808404;29;20501;-80
2022/01/21 01:57:59;;;;;;;11.60;7.22;;;;;;;;;;4808772;29;20059;-80
2022/01/21 02:00:44;;;;;;;16.13;8.98;;;;;;;;;;4801109;29;20047;-80
2022/01/21 02:03:32;;;;;;;14.63;9.57;;;;;;;;;;4814488;29;20051;-80
2022/01/21 02:06:17;;;;;;;19.50;10.90;;;;;;;;;;4808550;29;20494;-80
2022/01/21 02:09:03;;;;;;;17.20;10.00;;;;;;;;;;4808040;29;20043;-80
2022/01/21 02:11:48;;;;;;;17.63;10.68;;;;;;;;;;4801040;29;20409;-80
2022/01/21 02:14:37;;;;;;;17.13;10.48;;;;;;;;;;4808306;29;20051;-80
2022/01/21 02:23:16;;;;;;;11.80;7.40;;;;;;;;;;4808643;29;20042;-81
2022/01/21 02:26:02;;;;;;;16.63;9.27;;;;;;;;;;4800357;29;20054;-81
2022/01/21 02:28:47;;;;;;;11.00;7.47;;;;;;;;;;4788440;29;20402;-81
2022/01/21 02:31:35;;;;;;;11.15;6.20;;;;;;;;;;4807890;29;20047;-80
2022/01/21 02:34:21;;;;;;;5.95;4.22;;;;;;;;;;4808146;29;20051;-81
2022/01/21 02:37:06;;;;;;;8.40;4.65;;;;;;;;;;4808492;29;20054;-81
2022/01/21 02:39:52;;;;;;;6.90;3.47;;;;;;;;;;4800274;29;20055;-80
2022/01/21 02:42:39;;;;;;;9.57;5.55;;;;;;;;;;4800018;29;20051;-81
2022/01/21 02:45:25;;;;;;;15.20;6.63;;;;;;;;;;4807627;29;20055;-81
2022/01/21 02:48:11;;;;;;;7.35;4.95;;;;;;;;;;4800270;29;20039;-81
2022/01/21 02:51:05;;;;;;;8.73;4.53;;;;;;;;;;4794260;29;20054;-81
2022/01/21 02:56:41;;;;;;;6.03;4.20;;;;;;;;;;4800145;29;20046;-81
2022/01/21 02:59:28;;;;;;;8.93;5.60;;;;;;;;;;4799726;29;20043;-81
2022/01/21 03:02:14;;;;;;;10.18;5.22;;;;;;;;;;4800175;29;20058;-80
2022/01/21 03:05:05;;;;;;;9.63;5.93;;;;;;;;;;4807326;29;20051;-81
2022/01/21 03:07:51;;;;;;;10.80;5.35;;;;;;;;;;4797676;29;20051;-81
2022/01/21 03:10:36;;;;;;;8.77;5.68;;;;;;;;;;4799810;29;20047;-80
2022/01/21 03:13:22;;;;;;;11.23;5.70;;;;;;;;;;4807256;29;20059;-80
2022/01/21 03:16:07;;;;;;;8.23;5.07;;;;;;;;;;4799906;29;20054;-80
2022/01/21 03:18:53;;;;;;;7.28;4.65;;;;;;;;;;4787597;29;20055;-80
2022/01/21 03:21:38;;;;;;;9.02;5.07;;;;;;;;;;4806930;29;20058;-80
2022/01/21 03:24:25;;;;;;;7.13;4.90;;;;;;;;;;4799790;29;20043;-80
2022/01/21 03:27:11;;;;;;;8.85;5.38;;;;;;;;;;4799623;29;20405;-81
2022/01/21 03:29:57;;;;;;;7.60;5.28;;;;;;;;;;4799344;29;20055;-80
2022/01/21 03:32:45;;;;;;;7.90;4.50;;;;;;;;;;4799808;29;20050;-80
2022/01/21 03:35:31;;;;;;;8.82;4.45;;;;;;;;;;4799290;29;20055;-81
2022/01/21 03:38:16;;;;;;;9.88;4.75;;;;;;;;;;4799422;29;20050;-80
2022/01/21 03:41:02;;;;;;;8.32;4.57;;;;;;;;;;4799512;29;20050;-81
2022/01/21 03:43:49;;;;;;;10.43;5.00;;;;;;;;;;4799060;29;20046;-81
2022/01/21 03:46:34;;;;;;;6.65;4.90;;;;;;;;;;4799712;29;20042;-81
2022/01/21 03:49:21;;;;;;;9.98;4.63;;;;;;;;;;4799349;29;20402;-81
2022/01/21 03:52:07;;;;;;;7.05;4.60;;;;;;;;;;4798915;29;20043;-80
2022/01/21 03:54:53;;;;;;;7.78;4.40;;;;;;;;;;4807018;29;20047;-81
2022/01/21 03:57:38;;;;;;;6.20;4.38;;;;;;;;;;4798547;29;20055;-81
2022/01/21 04:00:27;;;;;;;7.00;4.40;;;;;;;;;;4799193;29;20050;-81
2022/01/21 04:03:12;;;;;;;4.85;4.15;;;;;;;;;;4798790;29;20054;-82
2022/01/21 04:05:58;;;;;;;6.30;4.20;;;;;;;;;;4798707;29;20050;-82
2022/01/21 04:08:43;;;;;;;4.03;2.83;;;;;;;;;;4795044;29;20050;-81
2022/01/21 04:11:29;;;;;;;6.93;3.28;;;;;;;;;;4798484;29;20043;-81
2022/01/21 04:14:14;;;;;;;4.55;3.20;;;;;;;;;;4806965;29;20051;-83
2022/01/21 04:17:00;;;;;;;4.05;2.60;;;;;;;;;;4798797;29;20051;-82
2022/01/21 04:19:45;;;;;;;5.97;3.47;;;;;;;;;;4798653;29;20050;-82
2022/01/21 04:22:30;;;;;;;5.82;3.42;;;;;;;;;;4799233;29;20051;-82
2022/01/21 04:25:16;;;;;;;6.53;3.75;;;;;;;;;;4805979;29;20485;-83
2022/01/21 04:28:01;;;;;;;5.95;3.50;;;;;;;;;;4798912;29;20059;-80
2022/01/21 04:30:47;;;;;;;4.43;2.90;;;;;;;;;;4799162;29;20042;-81
2022/01/21 04:33:35;;;;;;;4.68;3.40;;;;;;;;;;4798104;29;20051;-81
2022/01/21 04:36:22;;;;;;;4.97;3.10;;;;;;;;;;4798878;29;20051;-81
2022/01/21 04:39:14;;;;;;;4.53;3.08;;;;;;;;;;4798375;29;20046;-81
2022/01/21 04:48:08;;;;;;;4.18;2.92;;;;;;;;;;4798634;29;20067;-81
2022/01/21 04:53:42;;;;;;;8.50;4.30;;;;;;;;;;4798207;29;20059;-82
2022/01/21 04:56:50;;;;;;;8.95;4.43;;;;;;;;;;4805935;29;20055;-81
2022/01/21 04:59:39;;;;;;;24.58;15.98;;;;;;;;;;4807894;29;20055;-79
2022/01/21 05:02:26;;;;;;;14.55;9.00;;;;;;;;;;4802535;29;20043;-80
2022/01/21 05:05:11;;;;;;;10.73;5.22;;;;;;;;;;4801123;29;20050;-80
2022/01/21 05:08:00;;;;;;;14.65;8.38;;;;;;;;;;4799230;29;20051;-81
2022/01/21 05:10:47;;;;;;;15.23;10.02;;;;;;;;;;4815977;29;20051;-80
2022/01/21 05:13:38;;;;;;;12.20;6.07;;;;;;;;;;4803034;29;20070;-80
2022/01/21 05:19:16;;;;;;;11.45;6.22;;;;;;;;;;4802960;29;20047;-81
2022/01/21 05:22:10;;;;;;;6.10;3.78;;;;;;;;;;4802524;29;20063;-82
2022/01/21 05:25:03;;;;;;;10.38;6.25;;;;;;;;;;4801951;29;20055;-81
2022/01/21 05:27:51;;;;;;;13.88;7.13;;;;;;;;;;4802101;29;20043;-81
2022/01/21 05:30:36;;;;;;;10.73;7.43;;;;;;;;;;4788535;29;20047;-81
2022/01/21 05:33:33;;;;;;;20.88;11.30;;;;;;;;;;4801852;29;20050;-83
2022/01/21 05:36:50;;;;;;;19.88;11.52;;;;;;;;;;4795709;29;20055;-82
2022/01/21 05:39:47;;;;;;;22.95;10.93;;;;;;;;;;4801789;29;20042;-82
2022/01/21 05:42:55;;;;;;;22.27;11.10;;;;;;;;;;4801013;29;20059;-83
2022/01/21 05:46:33;;;;;;;17.88;8.68;;;;;;;;;;4814313;29;20055;-81
2022/01/21 05:49:22;;;;;;;13.60;7.95;;;;;;;;;;4808601;29;20051;-82
2022/01/21 05:52:38;;;;;;;16.52;8.75;;;;;;;;;;4808600;29;20059;-82
2022/01/21 05:55:47;;;;;;;16.92;7.03;;;;;;;;;;4808895;29;20055;-81
2022/01/21 05:58:52;;;;;;;13.27;5.90;;;;;;;;;;4800361;29;20042;-81
2022/01/21 06:01:38;;;;;;;10.10;6.13;;;;;;;;;;4809079;29;20054;-83
2022/01/21 06:04:24;;;;;;;10.77;5.72;;;;;;;;;;4800204;29;20042;-81
2022/01/21 06:07:10;;;;;;;13.35;6.50;;;;;;;;;;4801069;29;20058;-83
2022/01/21 06:09:55;;;;;;;11.35;6.60;;;;;;;;;;4802224;29;20051;-81
2022/01/21 06:12:46;;;;;;;13.68;7.95;;;;;;;;;;4801256;29;20051;-82
2022/01/21 06:15:31;;;;;;;24.48;11.73;;;;;;;;;;4800435;29;20051;-82
2022/01/21 06:18:17;;;;;;;22.80;10.18;;;;;;;;;;4807887;29;20047;-82
2022/01/21 06:21:03;;;;;;;27.40;14.55;;;;;;;;;;4808572;29;20055;-81
2022/01/21 06:23:48;;;;;;;32.50;15.20;;;;;;;;;;4812342;29;20055;-84
2022/01/21 06:26:35;;;;;;;33.45;13.88;;;;;;;;;;4830159;29;20059;-83
2022/01/21 06:29:20;;;;;;;67.80;25.92;;;;;;;;;;4808628;29;20050;-83
2022/01/21 06:32:06;;;;;;;44.13;22.10;;;;;;;;;;4808395;29;20047;-83
2022/01/21 06:34:51;;;;;;;37.35;19.83;;;;;;;;;;4808131;29;20518;-82
2022/01/21 06:37:39;;;;;;;31.20;18.25;;;;;;;;;;4808160;29;20059;-82
2022/01/21 06:40:23;;;;;;;46.80;21.42;;;;;;;;;;4807484;29;20047;-82
2022/01/21 06:43:09;;;;;;;51.28;23.77;;;;;;;;;;4808253;29;20043;-82
2022/01/21 06:45:55;;;;;;;83.53;36.33;;;;;;;;;;4807665;29;20054;-82
2022/01/21 06:48:41;;;;;;;58.47;30.13;;;;;;;;;;4807286;29;20051;-82
2022/01/21 06:51:26;;;;;;;60.17;31.73;;;;;;;;;;4806781;29;20055;-81
2022/01/21 06:54:13;;;;;;;60.50;31.73;;;;;;;;;;4807181;29;20054;-83
2022/01/21 06:56:58;;;;;;;68.30;33.78;;;;;;;;;;4800095;29;20047;-83
2022/01/21 06:59:43;;;;;;;96.00;45.20;;;;;;;;;;4793911;29;20055;-83
2022/01/21 07:02:28;;;;;;;100.32;44.80;;;;;;;;;;4807184;29;20043;-83
2022/01/21 07:05:16;;;;;;;90.28;41.90;;;;;;;;;;4807587;29;20047;-83
2022/01/21 07:08:02;;;;;;;62.65;30.60;;;;;;;;;;4806658;29;20055;-84
2022/01/21 07:10:47;;;;;;;76.55;34.25;;;;;;;;;;4807383;29;20047;-82
2022/01/21 07:13:34;;;;;;;86.35;39.83;;;;;;;;;;4807437;29;20402;-83
2022/01/21 07:16:20;;;;;;;106.07;45.50;;;;;;;;;;4807215;29;20051;-83
2022/01/21 07:19:05;;;;;;;109.95;49.47;;;;;;;;;;4793808;29;20051;-83
2022/01/21 07:21:50;;;;;;;92.63;39.15;;;;;;;;;;4807385;29;20055;-82
2022/01/21 07:24:36;;;;;;;154.18;59.05;;;;;;;;;;4792906;29;20070;-82
2022/01/21 07:27:21;;;;;;;182.23;77.03;;;;;;;;;;4806873;29;20054;-83
2022/01/21 07:30:09;;;;;;;121.03;52.13;;;;;;;;;;4806740;29;20050;-83
2022/01/21 07:32:54;;;;;;;99.00;44.25;;;;;;;;;;4807416;29;20054;-83
2022/01/21 07:35:40;;;;;;;129.57;53.15;;;;;;;;;;4807043;29;20054;-83
2022/01/21 07:38:38;;;;;;;86.18;38.67;;;;;;;;;;4806314;29;20043;-83
2022/01/21 07:41:24;;;;;;;84.40;34.65;;;;;;;;;;4806885;29;20394;-83
2022/01/21 07:44:10;;;;;;;94.13;35.90;;;;;;;;;;4806528;29;20501;-83
2022/01/21 07:46:55;;;;;;;88.75;35.30;;;;;;;;;;4807959;29;20428;-82
2022/01/21 07:49:42;;;;;;;74.55;36.40;;;;;;;;;;4807100;29;20059;-83
2022/01/21 07:52:28;;;;;;;68.22;36.72;;;;;;;;;;4807462;29;20046;-82
2022/01/21 07:55:13;;;;;;;49.70;26.23;;;;;;;;;;4823158;29;20047;-82
2022/01/21 07:58:00;;;;;;;59.65;29.58;;;;;;;;;;4806474;29;20054;-82
2022/01/21 08:00:46;;;;;;;59.60;28.50;;;;;;;;;;4806654;29;20434;-82
2022/01/21 08:03:31;;;;;;;51.60;30.33;;;;;;;;;;4806667;29;20405;-82
2022/01/21 08:06:17;;;;;;;65.88;36.28;;;;;;;;;;4792893;29;20059;-82
2022/01/21 08:09:04;;;;;;;43.90;25.88;;;;;;;;;;4805988;29;20055;-82
2022/01/21 08:11:49;;;;;;;44.65;23.63;;;;;;;;;;4806578;29;20390;-81
2022/01/21 08:14:34;;;;;;;41.92;20.80;;;;;;;;;;4806426;29;20050;-81
2022/01/21 08:17:21;;;;;;;35.20;17.90;;;;;;;;;;4806213;29;20490;-81
2022/01/21 08:20:07;;;;;;;35.00;18.60;;;;;;;;;;4805874;29;20047;-81
2022/01/21 08:22:52;;;;;;;39.35;22.30;;;;;;;;;;4806533;29;20494;-81
2022/01/21 08:25:39;;;;;;;35.92;21.58;;;;;;;;;;4805980;29;20054;-82
2022/01/21 08:28:24;;;;;;;55.17;27.23;;;;;;;;;;4805494;29;20055;-82
2022/01/21 08:31:10;;;;;;;58.67;29.55;;;;;;;;;;4812715;29;20054;-82
2022/01/21 08:33:56;;;;;;;84.80;36.40;;;;;;;;;;4806220;29;20058;-83
2022/01/21 08:36:43;;;;;;;85.63;34.22;;;;;;;;;;4806325;29;20050;-83
2022/01/21 08:39:30;;;;;;;79.78;36.00;;;;;;;;;;4807184;29;20485;-83
2022/01/21 08:42:16;;;;;;;78.10;38.78;;;;;;;;;;4809468;29;20486;-82
2022/01/21 08:45:02;;;;;;;82.20;41.67;;;;;;;;;;4809907;29;20051;-81
2022/01/21 08:47:48;;;;;;;85.20;43.40;;;;;;;;;;4808755;29;20402;-82
2022/01/21 08:50:34;;;;;;;123.60;55.28;;;;;;;;;;4809735;29;20409;-82
2022/01/21 08:56:24;;;;;;;38.17;21.07;;;;;;;;;;4815444;29;20059;-82
2022/01/21 08:59:10;;;;;;;40.22;21.33;;;;;;;;;;4809752;29;20051;-82
2022/01/21 09:01:55;;;;;;;70.85;30.50;;;;;;;;;;4809295;29;20050;-83
2022/01/21 09:04:41;;;;;;;71.97;32.13;;;;;;;;;;4809583;29;20050;-82
2022/01/21 09:07:26;;;;;;;68.65;34.50;;;;;;;;;;4809120;29;20055;-80
2022/01/21 09:10:13;;;;;;;62.38;33.63;;;;;;;;;;4790635;30;20047;-77
2022/01/21 09:12:58;;;;;;;68.47;34.03;;;;;;;;;;4790365;30;20498;-76
2022/01/21 09:15:46;;;;;;;67.90;36.13;;;;;;;;;;4790916;30;20059;-78
2022/01/21 09:18:46;;;;;;;101.07;45.00;;;;;;;;;;4790563;30;20051;-78
2022/01/21 09:21:34;;;;;;;79.32;32.10;;;;;;;;;;4790540;30;20059;-78
2022/01/21 09:24:20;;;;;;;42.53;23.38;;;;;;;;;;4790719;30;20055;-78
2022/01/21 09:27:07;;;;;;;40.05;22.02;;;;;;;;;;4791195;30;20486;-77
2022/01/21 09:29:52;;;;;;;34.08;20.35;;;;;;;;;;4790700;30;20043;-75
2022/01/21 09:32:38;;;;;;;33.92;19.58;;;;;;;;;;4790524;30;20487;-75
2022/01/21 09:35:24;;;;;;;39.45;21.00;;;;;;;;;;4796889;29;20410;-75
2022/01/21 09:38:09;;;;;;;35.80;18.73;;;;;;;;;;4790368;30;20048;-75
2022/01/21 09:40:57;;;;;;;47.00;23.42;;;;;;;;;;4790551;30;20506;-74
2022/01/21 09:43:50;;;;;;;33.05;17.38;;;;;;;;;;4790727;30;20047;-74
2022/01/21 09:46:37;;;;;;;49.10;24.15;;;;;;;;;;4796024;29;20493;-75
2022/01/21 09:49:26;;;;;;;44.85;21.33;;;;;;;;;;4796516;29;20065;-77
2022/01/21 09:52:16;;;;;;;54.30;26.42;;;;;;;;;;4775964;30;20059;-75
2022/01/21 09:55:01;;;;;;;62.13;29.92;;;;;;;;;;4790148;30;20059;-75
2022/01/21 09:57:50;;;;;;;42.13;25.13;;;;;;;;;;4790826;30;20051;-75
2022/01/21 10:00:35;;;;;;;37.40;22.25;;;;;;;;;;4782562;29;20047;-73
2022/01/21 10:03:22;;;;;;;34.60;22.02;;;;;;;;;;4790632;30;20051;-76
2022/01/21 10:06:11;;;;;;;45.05;24.33;;;;;;;;;;4790396;30;20494;-73
2022/01/21 10:08:57;;;;;;;39.78;19.80;;;;;;;;;;4803218;29;20051;-73
2022/01/21 10:11:49;;;;;;;34.42;18.00;;;;;;;;;;4808413;29;20050;-73
2022/01/21 10:14:34;;;;;;;29.45;17.33;;;;;;;;;;4808159;29;20055;-73
2022/01/21 10:17:20;;;;;;;30.13;16.27;;;;;;;;;;4808477;29;20051;-72
2022/01/21 10:20:16;;;;;;;35.67;18.17;;;;;;;;;;4807373;29;20051;-73
2022/01/21 10:23:05;;;;;;;28.50;16.40;;;;;;;;;;4807481;29;20505;-73
2022/01/21 10:26:06;;;;;;;31.15;17.45;;;;;;;;;;4808521;29;20047;-72
2022/01/21 10:28:55;;;;;;;28.52;15.95;;;;;;;;;;4807753;29;20080;-72
2022/01/21 10:31:59;;;;;;;25.48;12.52;;;;;;;;;;4808177;29;20055;-72
2022/01/21 10:34:45;;;;;;;27.63;13.82;;;;;;;;;;4807852;29;20054;-72
2022/01/21 10:37:34;;;;;;;25.17;14.65;;;;;;;;;;4807870;29;20051;-72
2022/01/21 10:40:21;;;;;;;24.42;13.18;;;;;;;;;;4807655;29;20051;-72
2022/01/21 10:43:17;;;;;;;20.45;10.02;;;;;;;;;;4807339;29;20051;-71
2022/01/21 10:46:03;;;;;;;20.50;10.38;;;;;;;;;;4814187;29;20042;-72
2022/01/21 10:48:57;;;;;;;17.30;9.65;;;;;;;;;;4807021;29;20051;-72
2022/01/21 10:51:51;;;;;;;20.95;11.05;;;;;;;;;;4807359;29;20054;-72
2022/01/21 10:54:45;;;;;;;27.37;16.53;;;;;;;;;;4807420;29;20039;-72
2022/01/21 10:57:32;;;;;;;28.45;16.40;;;;;;;;;;4806718;29;20042;-72
2022/01/21 11:00:17;;;;;;;23.30;12.82;;;;;;;;;;4807714;29;20055;-72
2022/01/21 11:03:15;;;;;;;20.63;8.73;;;;;;;;;;4806807;29;20494;-72
2022/01/21 11:06:14;;;;;;;25.17;13.38;;;;;;;;;;4807231;29;20051;-72
2022/01/21 11:09:17;;;;;;;21.92;10.90;;;;;;;;;;4806973;29;20047;-72
2022/01/21 11:12:11;;;;;;;13.35;7.30;;;;;;;;;;4806740;29;20039;-72
2022/01/21 11:14:59;;;;;;;21.05;10.38;;;;;;;;;;4807152;29;20394;-73
2022/01/21 11:17:59;;;;;;;28.15;10.50;;;;;;;;;;4812747;29;20058;-72
2022/01/21 11:20:55;;;;;;;45.67;15.00;;;;;;;;;;4807228;29;20051;-72
2022/01/21 11:23:41;;;;;;;17.92;8.88;;;;;;;;;;4807117;29;20054;-72
2022/01/21 11:26:27;;;;;;;24.33;10.07;;;;;;;;;;4806443;29;20054;-71
2022/01/21 11:29:12;;;;;;;21.55;9.95;;;;;;;;;;4807302;29;20050;-71
2022/01/21 11:31:59;;;;;;;41.47;17.88;;;;;;;;;;4806641;29;20050;-72
2022/01/21 11:34:45;;;;;;;32.88;11.95;;;;;;;;;;4807099;29;20066;-72
2022/01/21 11:37:31;;;;;;;20.25;8.85;;;;;;;;;;4799373;29;20058;-71
2022/01/21 11:40:17;;;;;;;15.48;7.75;;;;;;;;;;4812236;29;20050;-71
2022/01/21 11:43:04;;;;;;;11.00;4.82;;;;;;;;;;4806635;29;20055;-72
2022/01/21 11:48:51;;;;;;;11.82;4.60;;;;;;;;;;4806412;29;20066;-72
2022/01/21 11:51:41;;;;;;;5.20;3.08;;;;;;;;;;4806939;29;20047;-71
2022/01/21 11:54:35;;;;;;;12.40;5.18;;;;;;;;;;4786041;29;20046;-70
2022/01/21 11:57:31;;;;;;;18.88;7.80;;;;;;;;;;4806783;29;20054;-70
2022/01/21 12:00:33;;;;;;;16.85;7.57;;;;;;;;;;4806104;29;20047;-72
2022/01/21 12:03:22;;;;;;;20.70;9.65;;;;;;;;;;4806565;29;20055;-72
2022/01/21 12:06:31;;;;;;;13.27;7.78;;;;;;;;;;4806587;29;20058;-71
2022/01/21 12:09:16;;;;;;;3.08;2.40;;;;;;;;;;4805441;29;20054;-70
2022/01/21 12:12:02;;;;;;;11.07;6.15;;;;;;;;;;4806604;29;20051;-73
2022/01/21 12:14:53;;;;;;;5.88;4.55;;;;;;;;;;4792031;29;20054;-72
2022/01/21 12:17:43;;;;;;;14.38;7.05;;;;;;;;;;4806503;29;20497;-74
2022/01/21 12:20:32;;;;;;;17.30;8.48;;;;;;;;;;4811996;29;20058;-74
2022/01/21 12:23:21;;;;;;;19.48;8.32;;;;;;;;;;4805787;29;20046;-74
2022/01/21 12:26:26;;;;;;;8.32;4.40;;;;;;;;;;4806670;29;20478;-74
2022/01/21 12:29:14;;;;;;;26.52;10.98;;;;;;;;;;4805324;29;20059;-75
2022/01/21 12:32:14;;;;;;;10.98;5.90;;;;;;;;;;4806207;29;20110;-74
2022/01/21 12:35:19;;;;;;;7.45;5.07;;;;;;;;;;4805688;29;20050;-74
2022/01/21 12:41:15;;;;;;;10.07;4.80;;;;;;;;;;4805732;29;20043;-75
2022/01/21 12:44:10;;;;;;;14.85;6.97;;;;;;;;;;4805386;29;20043;-72
2022/01/21 12:46:55;;;;;;;5.53;3.53;;;;;;;;;;4806426;29;20047;-73
2022/01/21 12:49:50;;;;;;;17.02;6.30;;;;;;;;;;4805398;29;20055;-74
2022/01/21 12:53:14;;;;;;;11.13;4.78;;;;;;;;;;4804254;29;20042;-72
2022/01/21 12:56:03;;;;;;;16.77;8.70;;;;;;;;;;4806209;29;20043;-73
2022/01/21 12:58:49;;;;;;;8.57;4.65;;;;;;;;;;4804176;29;20482;-73
2022/01/21 13:01:37;;;;;;;8.35;5.32;;;;;;;;;;4806467;29;20055;-73
2022/01/21 13:04:51;;;;;;;13.32;6.90;;;;;;;;;;4805482;29;20494;-73
2022/01/21 13:07:55;;;;;;;16.90;7.50;;;;;;;;;;4811772;29;20051;-73
2022/01/21 13:10:40;;;;;;;10.95;3.92;;;;;;;;;;4811901;29;20054;-73
2022/01/21 13:13:48;;;;;;;12.02;5.07;;;;;;;;;;4811775;29;20058;-73
2022/01/21 13:16:34;;;;;;;7.18;4.13;;;;;;;;;;4806441;29;20062;-72
2022/01/21 13:19:20;;;;;;;8.07;4.45;;;;;;;;;;4805499;29;20058;-73
2022/01/21 13:22:05;;;;;;;7.07;3.88;;;;;;;;;;4812235;29;20047;-72
2022/01/21 13:25:04;;;;;;;5.65;3.28;;;;;;;;;;4811614;29;20051;-74
2022/01/21 13:27:56;;;;;;;6.10;3.53;;;;;;;;;;4815047;29;20486;-72
2022/01/21 13:30:46;;;;;;;11.13;3.97;;;;;;;;;;4809330;29;20489;-72
2022/01/21 13:33:45;;;;;;;10.43;4.15;;;;;;;;;;4801704;29;20047;-72
2022/01/21 13:36:45;;;;;;;8.05;5.20;;;;;;;;;;4815108;29;20050;-72
2022/01/21 13:39:35;;;;;;;13.88;3.75;;;;;;;;;;4814630;29;20051;-72
2022/01/21 13:42:26;;;;;;;4.85;3.03;;;;;;;;;;4808911;29;20051;-71
2022/01/21 13:45:11;;;;;;;4.88;2.88;;;;;;;;;;4815074;29;20055;-74
2022/01/21 13:48:02;;;;;;;6.80;3.00;;;;;;;;;;4808016;29;20051;-72
2022/01/21 13:50:47;;;;;;;6.75;3.47;;;;;;;;;;4808879;29;20042;-72
2022/01/21 13:53:34;;;;;;;6.40;3.92;;;;;;;;;;4808629;29;20050;-75
2022/01/21 13:56:19;;;;;;;17.92;8.10;;;;;;;;;;4808435;29;20043;-72
2022/01/21 13:59:05;;;;;;;12.80;6.60;;;;;;;;;;4808261;29;20055;-73
2022/01/21 14:02:01;;;;;;;15.52;8.85;;;;;;;;;;4808165;29;20055;-72
2022/01/21 14:04:58;;;;;;;9.52;4.97;;;;;;;;;;4808827;29;20046;-72
2022/01/21 14:07:44;;;;;;;15.75;5.90;;;;;;;;;;4808142;29;20054;-75
2022/01/21 14:10:32;;;;;;;8.75;4.95;;;;;;;;;;4808681;29;20051;-75
2022/01/21 14:13:17;;;;;;;10.20;5.63;;;;;;;;;;4807122;29;20051;-76
2022/01/21 14:16:06;;;;;;;10.50;5.03;;;;;;;;;;4807854;29;20512;-75
2022/01/21 14:18:52;;;;;;;11.88;5.03;;;;;;;;;;4814241;29;20406;-75
2022/01/21 14:21:40;;;;;;;9.05;4.07;;;;;;;;;;4808222;29;20401;-74
2022/01/21 14:24:26;;;;;;;6.85;3.42;;;;;;;;;;4814314;29;20478;-75
2022/01/21 14:27:22;;;;;;;7.75;4.28;;;;;;;;;;4807208;29;20134;-74
2022/01/21 14:30:08;;;;;;;12.90;3.72;;;;;;;;;;4807790;29;20055;-74
2022/01/21 14:32:57;;;;;;;8.75;4.28;;;;;;;;;;4807829;29;20046;-75
2022/01/21 14:35:46;;;;;;;9.57;5.05;;;;;;;;;;4807673;29;20047;-74
2022/01/21 14:38:31;;;;;;;7.45;4.68;;;;;;;;;;4813530;29;20054;-75
2022/01/21 14:41:19;;;;;;;8.73;4.47;;;;;;;;;;4808250;29;20054;-75
2022/01/21 14:44:04;;;;;;;8.82;4.35;;;;;;;;;;4808018;29;20505;-76
2022/01/21 14:46:50;;;;;;;8.52;4.60;;;;;;;;;;4807151;29;20054;-75
2022/01/21 14:49:36;;;;;;;7.88;4.50;;;;;;;;;;4807494;29;20051;-75
2022/01/21 14:52:43;;;;;;;6.13;3.72;;;;;;;;;;4807011;29;20046;-76
2022/01/21 14:55:33;;;;;;;6.05;3.45;;;;;;;;;;4807787;29;20051;-75
2022/01/21 14:58:28;;;;;;;5.03;3.05;;;;;;;;;;4807326;29;20051;-78
2022/01/21 15:01:13;;;;;;;6.97;3.92;;;;;;;;;;4807598;29;20043;-78
2022/01/21 15:04:12;;;;;;;16.30;7.18;;;;;;;;;;4807565;29;20490;-74
2022/01/21 15:07:12;;;;;;;12.85;5.05;;;;;;;;;;4807340;29;20051;-74
2022/01/21 15:10:03;;;;;;;13.32;7.40;;;;;;;;;;4813469;29;20063;-78
2022/01/21 15:15:53;;;;;;;11.65;6.40;;;;;;;;;;4807406;29;20055;-74
2022/01/21 15:18:39;;;;;;;12.35;6.13;;;;;;;;;;4807255;29;20490;-74
2022/01/21 15:21:32;;;;;;;15.88;6.35;;;;;;;;;;4807734;29;20046;-74
2022/01/21 15:24:20;;;;;;;12.48;5.80;;;;;;;;;;4807346;29;20054;-74
2022/01/21 15:27:06;;;;;;;15.02;6.30;;;;;;;;;;4807090;29;20050;-77
2022/01/21 15:29:53;;;;;;;8.43;4.72;;;;;;;;;;4806978;29;20486;-74
2022/01/21 15:32:39;;;;;;;16.95;7.32;;;;;;;;;;4807186;29;20055;-77
2022/01/21 15:35:25;;;;;;;11.85;5.75;;;;;;;;;;4807182;29;20055;-77
2022/01/21 15:38:10;;;;;;;13.73;7.50;;;;;;;;;;4812402;29;20051;-77
2022/01/21 15:40:55;;;;;;;12.38;6.03;;;;;;;;;;4806635;29;20050;-77
2022/01/21 15:43:41;;;;;;;15.43;7.50;;;;;;;;;;4807017;29;20055;-77
2022/01/21 15:46:27;;;;;;;12.95;6.65;;;;;;;;;;4812915;29;20055;-74
2022/01/21 15:49:12;;;;;;;15.80;8.50;;;;;;;;;;4806550;29;20051;-76
2022/01/21 15:51:58;;;;;;;9.00;3.83;;;;;;;;;;4806891;29;20050;-76
2022/01/21 15:54:43;;;;;;;11.02;5.53;;;;;;;;;;4806869;29;20054;-77
2022/01/21 15:57:29;;;;;;;32.88;14.38;;;;;;;;;;4806999;29;20055;-77
2022/01/21 16:00:15;;;;;;;22.63;9.68;;;;;;;;;;4806846;29;20055;-74
2022/01/21 16:03:04;;;;;;;9.77;6.20;;;;;;;;;;4812265;29;20051;-75
2022/01/21 16:05:50;;;;;;;16.00;8.52;;;;;;;;;;4799607;29;20410;-74
2022/01/21 16:08:37;;;;;;;13.90;6.88;;;;;;;;;;4806275;29;20054;-77
2022/01/21 16:11:22;;;;;;;78.90;24.05;;;;;;;;;;4806814;29;20050;-75
2022/01/21 16:14:07;;;;;;;84.43;23.35;;;;;;;;;;4806480;29;20050;-77
2022/01/21 16:16:53;;;;;;;128.23;33.47;;;;;;;;;;4806268;29;20051;-77
2022/01/21 16:19:40;;;;;;;42.55;15.98;;;;;;;;;;4812121;29;20059;-76
2022/01/21 16:22:25;;;;;;;55.35;19.90;;;;;;;;;;4806344;29;20059;-77
2022/01/21 16:25:11;;;;;;;14.57;6.80;;;;;;;;;;4805750;29;20050;-76
2022/01/21 16:27:57;;;;;;;21.23;9.85;;;;;;;;;;4806344;29;20043;-76
2022/01/21 16:30:42;;;;;;;13.85;7.45;;;;;;;;;;4806058;29;20039;-77
2022/01/21 16:33:29;;;;;;;22.95;10.55;;;;;;;;;;4806359;29;20043;-74
2022/01/21 16:36:16;;;;;;;21.80;10.85;;;;;;;;;;4806018;29;20514;-77
2022/01/21 16:39:03;;;;;;;19.08;9.32;;;;;;;;;;4812240;29;20051;-77
2022/01/21 16:41:49;;;;;;;16.33;7.18;;;;;;;;;;4812274;29;20055;-76
2022/01/21 16:44:35;;;;;;;16.75;7.65;;;;;;;;;;4806199;29;20055;-74
2022/01/21 16:47:20;;;;;;;10.85;5.75;;;;;;;;;;4806170;29;20058;-77
2022/01/21 16:50:07;;;;;;;12.43;5.95;;;;;;;;;;4806082;29;20055;-73
2022/01/21 16:52:52;;;;;;;10.95;5.05;;;;;;;;;;4806052;29;20047;-75
2022/01/21 16:55:38;;;;;;;22.10;9.95;;;;;;;;;;4806203;29;20055;-75
2022/01/21 16:58:24;;;;;;;23.80;11.60;;;;;;;;;;4806115;29;20486;-75
2022/01/21 17:01:10;;;;;;;29.00;15.38;;;;;;;;;;4809293;29;20051;-82
2022/01/21 17:03:59;;;;;;;27.60;12.35;;;;;;;;;;4816299;29;20051;-84
2022/01/21 17:06:45;;;;;;;47.13;18.02;;;;;;;;;;4809257;29;20402;-82
2022/01/21 17:09:30;;;;;;;90.40;28.17;;;;;;;;;;4809239;29;20055;-80
2022/01/21 17:12:16;;;;;;;45.85;15.60;;;;;;;;;;4810324;29;20055;-79
2022/01/21 17:15:02;;;;;;;50.42;20.92;;;;;;;;;;4817990;29;20047;-77
2022/01/21 17:17:50;;;;;;;58.25;25.13;;;;;;;;;;4811676;29;20398;-79
2022/01/21 17:20:36;;;;;;;120.03;37.33;;;;;;;;;;4818471;29;20051;-81
2022/01/21 17:23:22;;;;;;;63.97;22.83;;;;;;;;;;4821068;29;20379;-81
2022/01/21 17:26:08;;;;;;;65.63;23.45;;;;;;;;;;4820066;29;20055;-79
2022/01/21 17:28:53;;;;;;;74.45;27.20;;;;;;;;;;4815698;29;20055;-83
2022/01/21 17:31:39;;;;;;;107.13;32.67;;;;;;;;;;4824520;29;20054;-82
2022/01/21 17:34:24;;;;;;;67.55;24.63;;;;;;;;;;4810203;29;20054;-81